Terminal Aerodrome Forecast
Issued by NWS

Home | Current Version | Previous Version | Text Only | Print | Product List | Glossary On
Versions: 1 2 3 4 5 6 7 8 9 10 11 12 13 14 15 16 17 18 19 20 21 22 23 24 25 26 27 28 29 30 31 32 33 34 35 36 37 38 39 40 41 42 43 44 45 46 47 48 49 50
000
FTUS46 KMTR 230527
TAFSNS
TAF
KSNS 230527Z 2306/2406 30009KT 6SM BR OVC004
     FM230900 VRB04KT 6SM BR OVC004
      TEMPO 2312/2316 3SM BR OVC003
     FM231700 29003KT P6SM SCT009
     FM232000 29016KT P6SM SKC
     FM240300 31009KT P6SM SKC=

USA.gov is the U.S. government's official web portal to all federal, state and local government web resources and services.